createdAt,value
2022-11-07T00:01:19.943Z,10.35
2022-11-07T00:03:47.102Z,9.83
2022-11-07T00:06:14.145Z,9.93
2022-11-07T00:08:41.176Z,10.02
2022-11-07T00:11:08.340Z,10.85
2022-11-07T00:13:35.334Z,10.63
2022-11-07T00:16:09.094Z,11.43
2022-11-07T00:18:36.492Z,11.10
2022-11-07T00:21:09.154Z,10.63
2022-11-07T00:23:39.179Z,11.20
2022-11-07T00:26:08.971Z,10.35
2022-11-07T00:28:40.889Z,10.40
2022-11-07T00:31:09.454Z,9.68
2022-11-07T00:33:36.800Z,10.43
2022-11-07T00:36:04.562Z,10.68
2022-11-07T00:38:31.594Z,9.40
2022-11-07T00:41:00.295Z,10.23
2022-11-07T00:43:27.673Z,10.32
2022-11-07T00:45:54.680Z,9.95
2022-11-07T00:48:22.167Z,10.57
2022-11-07T00:50:49.278Z,10.70
2022-11-07T00:53:17.451Z,11.70
2022-11-07T00:55:44.798Z,10.95
2022-11-07T00:58:14.205Z,10.40
2022-11-07T01:00:41.829Z,10.63
2022-11-07T01:03:27.643Z,10.32
2022-11-07T01:06:03.181Z,10.87
2022-11-07T01:08:31.259Z,9.82
2022-11-07T01:10:59.227Z,11.60
2022-11-07T01:13:26.731Z,10.57
2022-11-07T01:15:53.941Z,10.13
2022-11-07T01:18:21.003Z,10.10
2022-11-07T01:20:49.684Z,10.38
2022-11-07T01:23:18.188Z,10.20
2022-11-07T01:25:45.541Z,9.55
2022-11-07T01:28:12.554Z,10.98
2022-11-07T01:30:44.143Z,10.70
2022-11-07T01:33:12.069Z,10.43
2022-11-07T01:35:39.973Z,10.82
2022-11-07T01:38:07.205Z,10.10
2022-11-07T01:40:54.227Z,10.05
2022-11-07T01:43:21.225Z,10.10
2022-11-07T01:45:48.493Z,9.48
2022-11-07T01:48:15.501Z,10.27
2022-11-07T01:50:42.517Z,9.77
2022-11-07T01:53:09.674Z,10.52
2022-11-07T01:55:37.201Z,10.53
2022-11-07T01:58:08.433Z,8.60
2022-11-07T02:00:37.114Z,9.32
2022-11-07T02:03:13.303Z,10.68
2022-11-07T02:05:49.061Z,9.57
2022-11-07T02:08:16.638Z,9.10
2022-11-07T02:10:44.319Z,9.00
2022-11-07T02:13:18.017Z,10.82
2022-11-07T02:15:44.980Z,9.25
2022-11-07T02:18:12.014Z,10.63
2022-11-07T02:20:39.320Z,9.73
2022-11-07T02:23:12.141Z,9.63
2022-11-07T02:25:39.442Z,9.60
2022-11-07T02:28:08.860Z,9.20
2022-11-07T02:30:35.891Z,8.73
2022-11-07T02:33:03.642Z,8.73
2022-11-07T02:35:40.539Z,9.45
2022-11-07T02:38:21.366Z,9.05
2022-11-07T02:40:52.445Z,9.07
2022-11-07T02:43:23.246Z,8.73
2022-11-07T02:45:51.435Z,9.50
2022-11-07T02:48:18.574Z,8.38
2022-11-07T02:50:45.619Z,8.32
2022-11-07T02:53:12.878Z,8.55
2022-11-07T02:55:40.130Z,8.48
2022-11-07T02:58:07.597Z,8.43
2022-11-07T03:00:34.569Z,8.35
2022-11-07T03:03:01.516Z,8.60
2022-11-07T03:05:28.556Z,8.23
2022-11-07T03:07:55.717Z,8.88
2022-11-07T03:10:22.805Z,8.47
2022-11-07T03:12:49.705Z,9.32
2022-11-07T03:15:16.704Z,8.40
2022-11-07T03:17:43.677Z,8.77
2022-11-07T03:20:11.387Z,8.57
2022-11-07T03:22:38.673Z,8.27
2022-11-07T03:25:06.712Z,8.35
2022-11-07T03:27:33.979Z,9.50
2022-11-07T03:30:00.980Z,8.48
2022-11-07T03:32:28.307Z,8.15
2022-11-07T03:34:55.206Z,7.77
2022-11-07T03:37:22.173Z,8.13
2022-11-07T03:39:49.208Z,8.15
2022-11-07T03:42:16.177Z,8.32
2022-11-07T03:44:43.236Z,7.70
2022-11-07T03:47:10.210Z,7.97
2022-11-07T03:49:37.235Z,8.93
2022-11-07T03:52:04.436Z,8.15
2022-11-07T03:54:31.440Z,8.52
2022-11-07T03:56:58.434Z,7.63
2022-11-07T03:59:25.671Z,8.43
2022-11-07T04:01:52.853Z,8.38
2022-11-07T04:04:19.852Z,8.32
2022-11-07T04:06:46.923Z,8.95
2022-11-07T04:09:13.891Z,8.20
2022-11-07T04:11:59.651Z,7.93
2022-11-07T04:14:45.337Z,8.85
2022-11-07T04:17:21.301Z,8.00
2022-11-07T04:19:50.585Z,7.82
2022-11-07T04:22:18.301Z,8.23
2022-11-07T04:24:46.159Z,9.53
2022-11-07T04:27:33.398Z,9.10
2022-11-07T04:30:25.694Z,8.85
2022-11-07T04:32:53.916Z,10.20
2022-11-07T04:35:23.954Z,8.30
2022-11-07T04:37:50.841Z,8.60
2022-11-07T04:40:18.216Z,8.65
2022-11-07T04:42:46.062Z,8.27
2022-11-07T04:45:13.840Z,8.45
2022-11-07T04:47:41.089Z,8.18
2022-11-07T04:50:10.976Z,7.97
2022-11-07T04:52:37.959Z,8.23
2022-11-07T04:55:07.060Z,7.63
2022-11-07T04:57:34.100Z,8.35
2022-11-07T05:00:01.131Z,7.82
2022-11-07T05:02:30.529Z,6.90
2022-11-07T05:04:57.443Z,7.25
2022-11-07T05:07:24.474Z,7.82
2022-11-07T05:09:51.351Z,7.47
2022-11-07T05:12:20.646Z,7.03
2022-11-07T05:14:47.589Z,6.50
2022-11-07T05:17:16.309Z,7.22
2022-11-07T05:19:43.668Z,7.55
2022-11-07T05:22:30.114Z,7.03
2022-11-07T05:24:57.139Z,7.47
2022-11-07T05:27:24.457Z,7.57
2022-11-07T05:29:51.795Z,7.10
2022-11-07T05:32:21.085Z,6.63
2022-11-07T05:34:49.448Z,7.70
2022-11-07T05:37:16.296Z,7.03
2022-11-07T05:39:43.341Z,6.70
2022-11-07T05:42:10.253Z,7.05
2022-11-07T05:44:37.214Z,6.38
2022-11-07T05:47:04.289Z,6.75
2022-11-07T05:49:31.310Z,6.60
2022-11-07T05:51:58.339Z,7.07
2022-11-07T05:54:28.005Z,7.50
2022-11-07T05:56:58.475Z,7.20
2022-11-07T05:59:26.007Z,6.85
2022-11-07T06:01:53.718Z,6.85
2022-11-07T06:04:20.833Z,7.07
2022-11-07T06:06:47.877Z,6.60
2022-11-07T06:09:14.789Z,8.07
2022-11-07T06:11:41.839Z,7.35
2022-11-07T06:14:08.924Z,7.05
2022-11-07T06:16:36.150Z,6.70
2022-11-07T06:19:03.448Z,6.93
2022-11-07T06:21:30.957Z,6.85
2022-11-07T06:23:58.608Z,6.82
2022-11-07T06:26:25.759Z,7.82
2022-11-07T06:28:53.226Z,7.07
2022-11-07T06:31:20.625Z,7.80
2022-11-07T06:33:51.076Z,6.90
2022-11-07T06:36:18.245Z,7.20
2022-11-07T06:38:53.270Z,7.57
2022-11-07T06:41:20.560Z,6.90
2022-11-07T06:43:47.569Z,7.05
2022-11-07T06:46:14.831Z,7.03
2022-11-07T06:48:41.842Z,6.93
2022-11-07T06:51:10.172Z,7.20
2022-11-07T06:53:37.534Z,6.70
2022-11-07T06:56:06.695Z,6.65
2022-11-07T06:58:41.727Z,6.72
2022-11-07T07:01:13.408Z,7.18
2022-11-07T07:03:41.450Z,6.22
2022-11-07T07:06:12.384Z,7.03
2022-11-07T07:08:39.974Z,6.85
2022-11-07T07:11:15.348Z,6.78
2022-11-07T07:13:42.924Z,7.05
2022-11-07T07:16:10.092Z,7.10
2022-11-07T07:18:37.103Z,6.73
2022-11-07T07:21:12.525Z,6.88
2022-11-07T07:23:40.206Z,7.18
2022-11-07T07:26:13.188Z,6.57
2022-11-07T07:28:40.219Z,7.50
2022-11-07T07:31:31.246Z,6.47
2022-11-07T07:33:58.733Z,6.75
2022-11-07T07:36:25.962Z,6.43
2022-11-07T07:38:53.328Z,6.75
2022-11-07T07:41:22.360Z,7.22
2022-11-07T07:43:49.350Z,6.30
2022-11-07T07:46:19.978Z,7.40
2022-11-07T07:48:47.091Z,7.50
2022-11-07T07:51:14.510Z,6.65
2022-11-07T07:53:41.570Z,6.53
2022-11-07T07:56:08.573Z,6.73
2022-11-07T07:58:35.479Z,6.57
2022-11-07T08:01:03.552Z,7.20
2022-11-07T08:03:50.718Z,6.90
2022-11-07T08:06:17.420Z,6.50
2022-11-07T08:08:44.376Z,6.23
2022-11-07T08:11:11.813Z,6.45
2022-11-07T08:13:38.760Z,6.25
2022-11-07T08:16:07.873Z,6.35
2022-11-07T08:18:36.766Z,6.50
2022-11-07T08:21:04.063Z,6.10
2022-11-07T08:23:31.331Z,6.25
2022-11-07T08:26:00.115Z,6.53
2022-11-07T08:28:29.882Z,7.28
2022-11-07T08:31:03.336Z,7.30
2022-11-07T08:33:30.655Z,6.43
2022-11-07T08:36:02.692Z,6.50
2022-11-07T08:38:31.299Z,6.80
2022-11-07T08:40:59.004Z,7.43
2022-11-07T08:43:26.635Z,6.90
2022-11-07T08:45:55.085Z,6.80
2022-11-07T08:48:23.214Z,6.85
2022-11-07T08:51:16.592Z,7.55
2022-11-07T08:53:43.548Z,6.60
2022-11-07T08:56:10.803Z,7.10
2022-11-07T08:58:38.047Z,7.00
2022-11-07T09:01:07.540Z,7.28
2022-11-07T09:03:46.606Z,7.80
2022-11-07T09:06:16.432Z,7.43
2022-11-07T09:08:43.587Z,6.93
2022-11-07T09:11:10.893Z,7.13
2022-11-07T09:13:37.933Z,7.55
2022-11-07T09:16:05.421Z,7.47
2022-11-07T09:18:33.567Z,7.57
2022-11-07T09:21:00.488Z,6.63
2022-11-07T09:23:28.310Z,7.77
2022-11-07T09:25:58.327Z,7.25
2022-11-07T09:28:25.340Z,7.47
2022-11-07T09:30:59.623Z,7.55
2022-11-07T09:33:27.579Z,7.40
2022-11-07T09:35:55.011Z,7.60
2022-11-07T09:38:21.937Z,7.43
2022-11-07T09:41:04.706Z,7.40
2022-11-07T09:43:52.794Z,7.88
2022-11-07T09:46:41.101Z,7.88
2022-11-07T09:49:22.516Z,8.20
2022-11-07T09:52:12.809Z,7.70
2022-11-07T09:54:46.838Z,8.02
2022-11-07T09:57:17.244Z,9.60
2022-11-07T09:59:53.215Z,8.25
2022-11-07T10:02:24.451Z,8.23
2022-11-07T10:04:57.947Z,7.93
2022-11-07T10:07:33.769Z,7.72
2022-11-07T10:10:27.514Z,7.88
2022-11-07T10:13:16.946Z,8.40
2022-11-07T10:15:54.970Z,7.87
2022-11-07T10:18:48.022Z,7.90
2022-11-07T10:21:53.129Z,8.30
2022-11-07T10:24:38.535Z,7.30
2022-11-07T10:27:11.815Z,9.07
2022-11-07T10:29:48.149Z,9.17
2022-11-07T10:32:34.535Z,8.48
2022-11-07T10:35:20.822Z,8.77
2022-11-07T10:37:56.287Z,8.75
2022-11-07T10:40:28.247Z,8.70
2022-11-07T10:42:56.546Z,8.17
2022-11-07T10:45:25.104Z,9.00
2022-11-07T10:47:59.424Z,8.38
2022-11-07T10:50:26.908Z,8.63
2022-11-07T10:52:55.147Z,8.60
2022-11-07T10:55:23.269Z,7.40
2022-11-07T10:58:06.259Z,7.90
2022-11-07T11:00:36.825Z,7.82
2022-11-07T11:03:16.432Z,7.35
2022-11-07T11:05:46.281Z,7.90
2022-11-07T11:08:19.500Z,8.50
2022-11-07T11:10:47.998Z,8.68
2022-11-07T11:13:44.338Z,7.93
2022-11-07T11:16:13.957Z,7.78
2022-11-07T11:18:50.134Z,9.15
2022-11-07T11:21:17.507Z,7.93
2022-11-07T11:23:46.096Z,8.07
2022-11-07T11:26:30.970Z,9.00
2022-11-07T11:29:04.122Z,7.85
2022-11-07T11:31:43.006Z,8.68
2022-11-07T11:34:17.444Z,9.33
2022-11-07T11:37:05.393Z,8.68
2022-11-07T11:39:37.529Z,7.65
2022-11-07T11:42:05.174Z,8.60
2022-11-07T11:44:40.557Z,8.38
2022-11-07T11:47:28.102Z,9.47
2022-11-07T11:50:18.121Z,8.88
2022-11-07T11:52:46.913Z,8.75
2022-11-07T11:55:15.744Z,8.90
2022-11-07T11:57:57.982Z,9.38
2022-11-07T12:00:25.358Z,8.33
2022-11-07T12:03:14.232Z,7.85
2022-11-07T12:06:07.454Z,8.20
2022-11-07T12:08:46.431Z,11.18
2022-11-07T12:11:47.378Z,8.15
2022-11-07T12:14:38.426Z,9.53
2022-11-07T12:17:11.544Z,8.20
2022-11-07T12:20:00.756Z,9.20
2022-11-07T12:22:36.394Z,8.88
2022-11-07T12:25:15.399Z,9.88
2022-11-07T12:27:59.492Z,8.50
2022-11-07T12:31:08.727Z,8.88
2022-11-07T12:34:04.486Z,13.32
2022-11-07T12:36:43.572Z,8.90
2022-11-07T12:39:52.216Z,8.68
2022-11-07T12:42:35.381Z,8.63
2022-11-07T12:45:25.923Z,8.77
2022-11-07T12:48:29.383Z,9.80
2022-11-07T12:51:05.381Z,8.93
2022-11-07T12:53:51.610Z,9.27
2022-11-07T12:56:24.357Z,8.77
2022-11-07T12:58:52.885Z,9.07
2022-11-07T13:01:27.987Z,9.93
2022-11-07T13:04:20.700Z,11.05
2022-11-07T13:07:17.430Z,11.07
2022-11-07T13:09:44.321Z,12.23
2022-11-07T13:12:38.002Z,11.32
2022-11-07T13:15:08.501Z,10.85
2022-11-07T13:17:41.813Z,11.10
2022-11-07T13:20:20.977Z,10.57
2022-11-07T13:22:50.373Z,11.37
2022-11-07T13:25:17.816Z,10.57
2022-11-07T13:28:06.082Z,10.95
2022-11-07T13:30:40.118Z,10.93
2022-11-07T13:33:24.401Z,11.23
2022-11-07T13:35:57.572Z,10.17
2022-11-07T13:38:25.860Z,11.27
2022-11-07T13:41:07.929Z,10.93
2022-11-07T13:43:42.154Z,11.05
2022-11-07T13:46:19.560Z,11.07
2022-11-07T13:49:00.000Z,11.27
2022-11-07T13:51:33.082Z,11.35
2022-11-07T13:54:27.948Z,10.63
2022-11-07T13:57:10.695Z,10.13
2022-11-07T13:59:57.288Z,10.88
2022-11-07T14:02:33.337Z,10.90
2022-11-07T14:05:22.323Z,12.15
2022-11-07T14:07:54.403Z,12.15
2022-11-07T14:10:32.330Z,12.27
2022-11-07T14:13:26.870Z,12.73
2022-11-07T14:15:57.231Z,12.30
2022-11-07T14:18:30.704Z,11.38
2022-11-07T14:20:59.389Z,12.15
2022-11-07T14:23:29.092Z,12.55
2022-11-07T14:25:59.061Z,11.77
2022-11-07T14:28:37.227Z,11.57
2022-11-07T14:31:16.096Z,11.75
2022-11-07T14:33:56.017Z,12.25
2022-11-07T14:36:23.936Z,12.02
2022-11-07T14:38:53.917Z,10.70
2022-11-07T14:41:22.279Z,12.03
2022-11-07T14:43:50.488Z,12.95
2022-11-07T14:46:23.473Z,12.45
2022-11-07T14:48:52.662Z,11.35
2022-11-07T14:51:25.659Z,11.30
2022-11-07T14:54:11.254Z,11.20
2022-11-07T14:56:43.770Z,12.00
2022-11-07T14:59:15.994Z,10.27
2022-11-07T15:02:04.670Z,11.40
2022-11-07T15:04:34.868Z,11.35
2022-11-07T15:07:20.355Z,10.50
2022-11-07T15:09:47.349Z,11.35
2022-11-07T15:12:36.723Z,11.75
2022-11-07T15:15:23.802Z,11.20
2022-11-07T15:17:53.682Z,11.60
2022-11-07T15:20:35.897Z,10.77
2022-11-07T15:23:07.069Z,11.27
2022-11-07T15:25:38.480Z,10.40
2022-11-07T15:28:19.144Z,11.27
2022-11-07T15:30:50.988Z,10.48
2022-11-07T15:33:19.162Z,11.47
2022-11-07T15:35:48.063Z,12.07
2022-11-07T15:38:21.966Z,11.90
2022-11-07T15:40:49.408Z,11.80
2022-11-07T15:43:16.494Z,11.32
2022-11-07T15:45:44.492Z,10.97
2022-11-07T15:48:18.048Z,12.13
2022-11-07T15:50:47.577Z,12.07
2022-11-07T15:53:28.873Z,11.50
2022-11-07T15:55:58.962Z,11.35
